Tokuyo Maru No.15 — JD2184 — position and weather

sailwx.info

Track history (hours):
 
Tides and Currents Weather Stations Pressure Air Temp Water Temp Dewpoint Dewpoint Depression Visibility Wind Speed Wind Dir Waves Ship Positions

Tokuyo Maru No.15

Last reported at 2016-May-07 09:33 UTC. Time now 2016-May-25 13:05 UTC.
Position N 34°07' E 134°60'.
Warning: this ship's position is 18 days out of date.

Length 66 m; draft 4.5 m.

Type: Tanker. MMSI: 431402034.

Date/timePositionNaut miles runAvg speedWind from/ knotsBaromVisibWave heightAir tempDewpointWater temp
2016-May-07 09:33N 34°07' E 134°60'1511.7
2016-May-07 08:16N 34°22' E 135°00'1313.0
2016-May-07 07:17N 34°28' E 135°13'912.2
2016-May-07 06:33N 34°33' E 135°22'2 0.3
2016-May-06 23:32N 34°33' E 135°25'6 6.2
2016-May-06 22:33N 34°32' E 135°18'8 8.1
2016-May-06 21:33N 34°27' E 135°10'1211.7
2016-May-06 20:30N 34°18' E 135°00'1212.1
2016-May-06 19:33N 34°06' E 135°00'  
2016-May-03 02:24N 34°36' E 134°54'7 8.7
2016-May-03 01:33N 34°36' E 135°03'2411.4
2016-May-02 23:29N 34°13' E 134°60'  
2016-Apr-30 14:09N 34°05' E 134°60'712.1
2016-Apr-30 13:32N 34°12' E 134°59'1411.4
2016-Apr-30 12:18N 34°25' E 135°06'912.2
2016-Apr-30 11:33N 34°30' E 135°16'8 1.3
2016-Apr-30 05:19N 34°32' E 135°25'6 7.2
2016-Apr-30 04:33N 34°31' E 135°19'  
Track history (hours):
 
Tides and Currents Weather Stations Pressure Air Temp Water Temp Dewpoint Dewpoint Depression Visibility Wind Speed Wind Dir Waves Ship Positions

Tokuyo Maru No.15

Last reported at 2016-May-07 09:33 UTC. Time now 2016-May-25 13:05 UTC.
Position N 34°07' E 134°60'.
Warning: this ship's position is 18 days out of date.

Length 66 m; draft 4.5 m.

Type: Tanker. MMSI: 431402034.

Date/timePositionNaut miles runAvg speedWind from/ knotsBaromVisibWave heightAir tempDewpointWater temp
2016-May-07 09:33N 34°07' E 134°60'1511.7
2016-May-07 08:16N 34°22' E 135°00'1313.0
2016-May-07 07:17N 34°28' E 135°13'912.2
2016-May-07 06:33N 34°33' E 135°22'2 0.3
2016-May-06 23:32N 34°33' E 135°25'6 6.2
2016-May-06 22:33N 34°32' E 135°18'8 8.1
2016-May-06 21:33N 34°27' E 135°10'1211.7
2016-May-06 20:30N 34°18' E 135°00'1212.1
2016-May-06 19:33N 34°06' E 135°00'  
2016-May-03 02:24N 34°36' E 134°54'7 8.7
2016-May-03 01:33N 34°36' E 135°03'2411.4
2016-May-02 23:29N 34°13' E 134°60'  
2016-Apr-30 14:09N 34°05' E 134°60'712.1
2016-Apr-30 13:32N 34°12' E 134°59'1411.4
2016-Apr-30 12:18N 34°25' E 135°06'912.2
2016-Apr-30 11:33N 34°30' E 135°16'8 1.3
2016-Apr-30 05:19N 34°32' E 135°25'6 7.2
2016-Apr-30 04:33N 34°31' E 135°19'  

Dump ship's entire track history